Terminal Aerodrome Forecast
Issued by NWS

Home | Current Version | Previous Version | Text Only | Print | Product List | Glossary On
Versions: 1 2 3 4 5 6 7 8 9 10 11 12 13 14 15 16 17 18 19 20 21 22 23 24 25
000
FTUS43 KICT 300540 AAA
TAFCNU
TAF AMD
KCNU 300540Z 3006/3106 VRB03KT 1 1/2SM BR SCT002 OVC090
      TEMPO 3006/3008 1/2SM FG VV002
     FM300800 33014G20KT P6SM BKN005 OVC040
      TEMPO 3008/3009 5SM TSRA SCT005 OVC040CB
     FM301200 34015G22KT P6SM OVC011
     FM301800 34012KT P6SM BKN025
     FM302300 35006KT P6SM SCT030=

USA.gov is the U.S. government's official web portal to all federal, state and local government web resources and services.